Time;durP1;ratioP1;P1;durP2;ratioP2;P2;SDS_P1;SDS_P2;PMS_P1;PMS_P2;Temp;Humidity;BMP_temperature;BMP_pressure;BME280_temperature;BME280_humidity;BME280_pressure;Samples;Min_cycle;Max_cycle;Signal;HPM_P1;HPM_P2
2024/03/29 00:01:51;;;;;;;1.40;0.90;;;6.40;99.90;;;;;;4903157;29;20052;-91
2024/03/29 00:04:16;;;;;;;2.58;1.00;;;6.50;99.90;;;;;;4903501;29;20123;-91
2024/03/29 00:06:42;;;;;;;4.70;0.98;;;6.50;99.90;;;;;;4903881;29;20386;-93
2024/03/29 00:09:08;;;;;;;1.05;0.82;;;6.40;99.90;;;;;;4903250;29;20506;-92
2024/03/29 00:11:34;;;;;;;2.35;1.75;;;6.40;99.90;;;;;;4903664;29;20036;-93
2024/03/29 00:13:59;;;;;;;1.08;0.90;;;6.40;99.90;;;;;;4905636;29;20035;-91
2024/03/29 00:16:27;;;;;;;2.05;1.00;;;6.40;99.90;;;;;;4906958;29;20557;-92
2024/03/29 00:18:53;;;;;;;1.25;0.77;;;6.30;99.90;;;;;;4905546;29;20024;-93
2024/03/29 00:21:19;;;;;;;0.90;0.65;;;6.30;99.90;;;;;;4904845;29;20032;-91
2024/03/29 00:23:45;;;;;;;4.35;1.10;;;6.30;99.90;;;;;;4904370;29;20115;-93
2024/03/29 00:26:11;;;;;;;1.48;1.30;;;6.30;99.90;;;;;;4905533;29;20374;-90
2024/03/29 00:28:37;;;;;;;2.95;1.33;;;6.20;99.90;;;;;;4903410;29;20029;-93
2024/03/29 00:31:04;;;;;;;6.90;1.40;;;6.20;99.90;;;;;;4902384;29;20024;-92
2024/03/29 00:33:30;;;;;;;3.85;1.50;;;6.10;99.90;;;;;;4902825;29;20031;-92
2024/03/29 00:35:56;;;;;;;1.48;0.88;;;6.10;99.90;;;;;;4903475;29;20028;-93
2024/03/29 00:38:21;;;;;;;7.53;1.48;;;6.10;99.90;;;;;;4902222;29;20031;-91
2024/03/29 00:40:47;;;;;;;4.85;1.48;;;6.10;99.90;;;;;;4902938;29;20032;-92
2024/03/29 00:43:13;;;;;;;3.83;1.23;;;6.00;99.90;;;;;;4902736;29;20052;-92
2024/03/29 00:45:38;;;;;;;6.63;1.42;;;5.90;99.90;;;;;;4902695;29;20135;-91
2024/03/29 00:48:04;;;;;;;2.72;1.13;;;5.90;99.90;;;;;;4902882;29;20036;-93
2024/03/29 00:50:30;;;;;;;7.32;1.48;;;5.80;99.90;;;;;;4902594;29;20039;-93
2024/03/29 00:52:56;;;;;;;4.15;1.10;;;5.80;99.90;;;;;;4902656;29;20032;-91
2024/03/29 00:55:21;;;;;;;1.63;1.08;;;5.70;99.90;;;;;;4902258;29;20094;-93
2024/03/29 00:57:47;;;;;;;4.22;0.88;;;5.70;99.90;;;;;;4902669;29;20028;-92
2024/03/29 01:00:13;;;;;;;5.45;0.93;;;5.60;99.90;;;;;;4902573;29;20056;-92
2024/03/29 01:02:39;;;;;;;2.05;0.63;;;5.60;99.90;;;;;;4901807;29;20107;-92
2024/03/29 01:05:06;;;;;;;8.55;1.05;;;5.60;99.90;;;;;;4901658;29;20036;-91
2024/03/29 01:07:31;;;;;;;2.45;0.70;;;5.50;99.90;;;;;;4901886;29;20076;-93
2024/03/29 01:09:57;;;;;;;5.20;1.40;;;5.50;99.90;;;;;;4902336;29;20036;-91
2024/03/29 01:12:23;;;;;;;5.00;0.90;;;5.50;99.90;;;;;;4902024;29;20025;-92
2024/03/29 01:14:49;;;;;;;2.85;1.00;;;5.50;99.90;;;;;;4902142;29;20509;-91
2024/03/29 01:17:14;;;;;;;1.73;0.82;;;5.50;99.90;;;;;;4902074;29;20039;-91
2024/03/29 01:19:40;;;;;;;3.88;1.20;;;5.40;99.90;;;;;;4902155;29;20382;-92
2024/03/29 01:22:06;;;;;;;1.27;1.00;;;5.40;99.90;;;;;;4902099;29;20478;-92
2024/03/29 01:24:31;;;;;;;6.63;1.17;;;5.40;99.90;;;;;;4901728;29;20032;-92
2024/03/29 01:26:58;;;;;;;2.53;1.00;;;5.40;99.90;;;;;;4901819;29;20039;-92
2024/03/29 01:29:24;;;;;;;2.30;0.70;;;5.30;99.90;;;;;;4902624;29;20032;-91
2024/03/29 01:31:50;;;;;;;6.38;0.90;;;5.30;99.90;;;;;;4902866;29;20087;-92
2024/03/29 01:34:16;;;;;;;3.10;0.90;;;5.30;99.90;;;;;;4902642;29;20493;-92
2024/03/29 01:36:42;;;;;;;5.35;1.10;;;5.30;99.90;;;;;;4902032;29;20040;-92
2024/03/29 01:39:10;;;;;;;1.42;0.70;;;5.30;99.90;;;;;;4902274;29;20038;-91
2024/03/29 01:41:35;;;;;;;5.93;0.88;;;5.30;99.90;;;;;;4902150;29;20103;-91
2024/03/29 01:44:01;;;;;;;3.10;0.95;;;5.30;99.90;;;;;;4902461;29;20056;-91
2024/03/29 01:46:27;;;;;;;7.10;1.00;;;5.30;99.90;;;;;;4902827;29;20039;-93
2024/03/29 01:48:53;;;;;;;1.40;0.80;;;5.30;99.90;;;;;;4901879;29;20028;-94
2024/03/29 01:51:23;;;;;;;4.93;1.02;;;5.30;99.90;;;;;;4901827;29;20036;-93
2024/03/29 01:53:52;;;;;;;7.70;1.00;;;5.30;99.90;;;;;;4901719;29;20052;-92
2024/03/29 01:56:19;;;;;;;4.43;1.20;;;5.20;99.90;;;;;;4901762;29;20039;-93
2024/03/29 01:58:45;;;;;;;7.20;1.30;;;5.20;99.90;;;;;;4902296;29;20060;-92
2024/03/29 02:01:12;;;;;;;5.88;1.83;;;5.20;99.90;;;;;;4902253;29;20087;-92
2024/03/29 02:03:39;;;;;;;9.57;1.70;;;5.20;99.90;;;;;;4918606;29;20426;-93
2024/03/29 02:06:06;;;;;;;4.68;1.70;;;5.20;99.90;;;;;;4902588;29;20048;-92
2024/03/29 02:08:33;;;;;;;5.97;1.88;;;5.20;99.90;;;;;;4910356;29;20016;-92
2024/03/29 02:10:59;;;;;;;4.85;1.80;;;5.20;99.90;;;;;;4914279;29;20028;-93
2024/03/29 02:13:25;;;;;;;4.40;2.10;;;5.20;99.90;;;;;;4907689;29;20024;-93
2024/03/29 02:15:51;;;;;;;4.00;1.48;;;5.20;99.90;;;;;;4906762;29;20023;-92
2024/03/29 02:18:16;;;;;;;6.30;2.25;;;5.20;99.90;;;;;;4916865;29;20032;-93
2024/03/29 02:20:42;;;;;;;2.88;1.50;;;5.20;99.90;;;;;;4904421;29;20087;-92
2024/03/29 02:23:17;;;;;;;6.65;1.80;;;5.20;99.90;;;;;;4906357;29;20028;-92
2024/03/29 02:25:43;;;;;;;5.13;1.45;;;5.20;99.90;;;;;;4903132;29;20036;-92
2024/03/29 02:28:09;;;;;;;4.97;1.35;;;5.20;99.90;;;;;;4901093;29;20036;-93
2024/03/29 02:30:35;;;;;;;5.40;1.50;;;5.20;99.90;;;;;;4901372;29;20031;-93
2024/03/29 02:33:01;;;;;;;8.48;2.33;;;5.20;99.90;;;;;;4901360;29;20040;-94
2024/03/29 02:35:28;;;;;;;7.75;1.83;;;5.30;99.90;;;;;;4901177;29;20063;-92
2024/03/29 02:37:54;;;;;;;5.93;1.55;;;5.20;99.90;;;;;;4901204;29;20124;-94
2024/03/29 02:40:20;;;;;;;7.80;1.33;;;5.30;99.90;;;;;;4901314;29;20097;-94
2024/03/29 02:42:47;;;;;;;3.33;1.33;;;5.30;99.90;;;;;;4900953;29;20040;-94
2024/03/29 02:45:13;;;;;;;9.35;1.52;;;5.30;99.90;;;;;;4901011;29;20037;-93
2024/03/29 02:47:39;;;;;;;3.72;1.13;;;5.30;99.90;;;;;;4901148;29;20446;-95
2024/03/29 02:50:06;;;;;;;2.95;1.10;;;5.30;99.90;;;;;;4901016;29;20055;-94
2024/03/29 02:52:32;;;;;;;7.13;1.45;;;5.20;99.90;;;;;;4900795;29;20119;-95
2024/03/29 02:54:57;;;;;;;7.60;1.52;;;5.30;99.90;;;;;;4917915;29;20082;-93
2024/03/29 02:57:23;;;;;;;11.18;1.52;;;5.20;99.90;;;;;;4900991;29;20032;-95
2024/03/29 02:59:49;;;;;;;7.43;1.92;;;5.20;99.90;;;;;;4900854;29;20032;-93
2024/03/29 03:02:14;;;;;;;5.90;2.00;;;5.20;99.90;;;;;;4902834;29;20045;-94
2024/03/29 03:04:40;;;;;;;9.07;1.80;;;5.20;99.90;;;;;;4905064;29;20040;-94
2024/03/29 03:10:56;;;;;;;7.70;1.38;;;5.20;99.90;;;;;;4904861;29;20036;-93
2024/03/29 03:12:35;;;;;;;5.88;1.40;;;5.20;99.90;;;;;;4921468;29;20043;-93
2024/03/29 03:15:01;;;;;;;9.63;2.03;;;5.20;99.90;;;;;;4904563;29;20035;-93
2024/03/29 03:17:29;;;;;;;2.85;1.02;;;5.20;99.90;;;;;;4905004;29;20120;-93
2024/03/29 03:19:55;;;;;;;5.85;1.55;;;5.20;99.90;;;;;;4904719;29;20039;-92
2024/03/29 03:22:20;;;;;;;9.75;1.50;;;5.20;99.90;;;;;;4905308;29;20494;-92
2024/03/29 03:24:46;;;;;;;5.78;2.05;;;5.20;99.90;;;;;;4909016;29;20044;-95
2024/03/29 03:27:12;;;;;;;6.55;1.55;;;5.10;99.90;;;;;;4910311;29;20196;-94
2024/03/29 03:29:37;;;;;;;8.68;2.00;;;5.10;99.90;;;;;;4908818;29;20040;-93
2024/03/29 03:32:04;;;;;;;7.93;1.55;;;5.10;99.90;;;;;;4907966;29;20076;-94
2024/03/29 03:34:30;;;;;;;4.03;1.75;;;5.10;99.90;;;;;;4905552;29;20028;-94
2024/03/29 03:36:55;;;;;;;6.10;1.60;;;5.00;99.90;;;;;;4922934;29;20039;-94
2024/03/29 03:39:22;;;;;;;7.80;2.08;;;5.00;99.90;;;;;;4905999;29;20110;-96
2024/03/29 03:41:47;;;;;;;7.45;1.92;;;5.00;99.90;;;;;;4905672;29;20036;-92
2024/03/29 03:44:13;;;;;;;4.88;1.75;;;4.90;99.90;;;;;;4907608;29;20042;-94
2024/03/29 03:46:39;;;;;;;3.92;2.20;;;4.90;99.90;;;;;;4905688;29;20442;-93
2024/03/29 03:49:04;;;;;;;8.45;2.20;;;4.90;99.90;;;;;;4907310;29;20068;-93
2024/03/29 03:51:30;;;;;;;8.30;2.30;;;4.80;99.90;;;;;;4906213;29;20028;-94
2024/03/29 03:53:56;;;;;;;8.30;2.30;;;4.80;99.90;;;;;;4904203;29;20066;-94
2024/03/29 03:56:22;;;;;;;6.68;2.03;;;4.80;99.90;;;;;;4905078;29;20056;-94
2024/03/29 03:58:47;;;;;;;4.90;1.88;;;4.80;99.90;;;;;;4904620;29;20020;-95
2024/03/29 04:01:13;;;;;;;11.60;2.70;;;4.70;99.90;;;;;;4907788;29;20036;-93
2024/03/29 04:03:39;;;;;;;7.90;1.80;;;4.70;99.90;;;;;;4909095;29;20047;-94
2024/03/29 04:06:06;;;;;;;5.70;1.92;;;4.70;99.90;;;;;;4909548;29;20035;-94
2024/03/29 04:08:32;;;;;;;8.38;2.58;;;4.70;99.90;;;;;;4911708;29;20052;-94
2024/03/29 04:11:01;;;;;;;4.93;2.25;;;4.60;99.90;;;;;;4916917;29;20036;-93
2024/03/29 04:13:27;;;;;;;8.43;2.70;;;4.60;99.90;;;;;;4924907;29;20024;-91
2024/03/29 04:15:53;;;;;;;5.38;1.80;;;4.60;99.90;;;;;;4926189;29;20080;-92
2024/03/29 04:18:18;;;;;;;2.17;1.80;;;4.60;99.90;;;;;;4924514;29;20032;-95
2024/03/29 04:20:44;;;;;;;4.32;2.60;;;4.60;99.90;;;;;;4906106;29;20494;-94
2024/03/29 04:23:10;;;;;;;4.93;1.50;;;4.50;99.90;;;;;;4905701;29;20052;-94
2024/03/29 04:25:35;;;;;;;4.10;1.73;;;4.50;99.90;;;;;;4915964;29;20032;-95
2024/03/29 04:28:01;;;;;;;8.90;2.00;;;4.50;99.90;;;;;;4907348;29;20028;-94
2024/03/29 04:30:26;;;;;;;10.07;2.35;;;4.50;99.90;;;;;;4906139;29;20458;-92
2024/03/29 04:32:52;;;;;;;6.20;1.85;;;4.50;99.90;;;;;;4905272;29;20475;-95
2024/03/29 04:35:18;;;;;;;7.82;2.00;;;4.40;99.90;;;;;;4904564;29;20036;-94
2024/03/29 04:37:43;;;;;;;4.82;1.80;;;4.40;99.90;;;;;;4904128;29;20051;-95
2024/03/29 04:40:10;;;;;;;3.10;1.70;;;4.40;99.90;;;;;;4903605;29;20488;-94
2024/03/29 04:42:35;;;;;;;9.43;2.10;;;4.40;99.90;;;;;;4904280;29;20032;-95
2024/03/29 04:45:01;;;;;;;6.43;1.67;;;4.30;99.90;;;;;;4903924;29;20039;-93
2024/03/29 04:47:27;;;;;;;4.65;2.70;;;4.30;99.90;;;;;;4904019;29;20466;-93
2024/03/29 04:49:52;;;;;;;5.95;1.80;;;4.30;99.90;;;;;;4903904;29;20463;-94
2024/03/29 04:52:18;;;;;;;5.28;1.80;;;4.30;99.90;;;;;;4903903;29;20028;-91
2024/03/29 04:54:44;;;;;;;8.38;2.40;;;4.30;99.90;;;;;;4925255;29;20510;-93
2024/03/29 04:57:15;;;;;;;6.25;2.17;;;4.30;99.90;;;;;;4909535;29;20024;-93
2024/03/29 04:59:41;;;;;;;6.72;2.00;;;4.30;99.90;;;;;;4904768;29;20119;-92
2024/03/29 05:02:06;;;;;;;6.35;2.30;;;4.30;99.90;;;;;;4904177;29;20091;-94
2024/03/29 05:04:32;;;;;;;7.20;2.08;;;4.20;99.90;;;;;;4903440;29;20044;-93
2024/03/29 05:06:58;;;;;;;6.90;1.88;;;4.20;99.90;;;;;;4903911;29;20541;-92
2024/03/29 05:09:25;;;;;;;6.40;1.50;;;4.20;99.90;;;;;;4903508;29;20100;-95
2024/03/29 05:11:51;;;;;;;5.88;1.85;;;4.20;99.90;;;;;;4903867;29;20035;-94
2024/03/29 05:14:20;;;;;;;5.15;1.80;;;4.10;99.90;;;;;;4903074;29;20024;-93
2024/03/29 05:16:46;;;;;;;6.38;1.52;;;4.10;99.90;;;;;;4903484;29;20111;-94
2024/03/29 05:19:13;;;;;;;7.75;1.98;;;4.10;99.90;;;;;;4904082;29;20152;-94
2024/03/29 05:21:39;;;;;;;10.70;2.03;;;4.10;99.90;;;;;;4903379;29;20032;-94
2024/03/29 05:24:05;;;;;;;5.80;1.73;;;4.10;99.90;;;;;;4902669;29;20080;-94
2024/03/29 05:26:31;;;;;;;6.22;1.50;;;4.10;99.90;;;;;;4903424;29;20032;-94
2024/03/29 05:28:58;;;;;;;10.40;1.90;;;4.10;99.90;;;;;;4902411;29;20042;-95
2024/03/29 05:31:24;;;;;;;6.28;1.42;;;4.10;99.90;;;;;;4902828;29;20074;-94
2024/03/29 05:33:50;;;;;;;3.53;2.10;;;4.10;99.90;;;;;;4902030;29;20057;-94
2024/03/29 05:36:15;;;;;;;5.80;1.98;;;4.10;99.90;;;;;;4901646;29;20072;-94
2024/03/29 05:38:41;;;;;;;5.70;3.00;;;4.10;99.90;;;;;;4901703;29;20031;-94
2024/03/29 05:41:07;;;;;;;12.65;3.70;;;4.10;99.90;;;;;;4901842;29;20062;-95
2024/03/29 05:43:33;;;;;;;7.80;3.28;;;4.10;99.90;;;;;;4901565;29;20084;-94
2024/03/29 05:46:01;;;;;;;16.55;3.50;;;4.10;99.90;;;;;;4918762;29;20044;-95
2024/03/29 05:48:27;;;;;;;11.95;3.95;;;4.00;99.90;;;;;;4901711;29;20024;-94
2024/03/29 05:50:53;;;;;;;7.88;3.53;;;4.10;99.90;;;;;;4901925;29;20092;-94
2024/03/29 05:53:18;;;;;;;11.75;4.53;;;4.10;99.90;;;;;;4902291;29;20032;-95
2024/03/29 05:55:44;;;;;;;9.73;4.70;;;4.10;99.90;;;;;;4904413;29;20032;-94
2024/03/29 05:58:10;;;;;;;8.40;4.07;;;4.10;99.90;;;;;;4910195;29;20068;-94
2024/03/29 06:00:36;;;;;;;9.55;4.30;;;4.10;99.90;;;;;;4902903;29;20035;-94
2024/03/29 06:03:05;;;;;;;13.95;4.50;;;4.20;99.90;;;;;;4903046;29;20055;-92
2024/03/29 06:05:31;;;;;;;10.55;3.60;;;4.20;99.90;;;;;;4902504;29;20599;-93
2024/03/29 06:07:57;;;;;;;20.63;4.18;;;4.20;99.90;;;;;;4901964;29;20024;-93
2024/03/29 06:10:22;;;;;;;11.82;3.47;;;4.20;99.90;;;;;;4904671;29;20032;-92
2024/03/29 06:12:48;;;;;;;9.90;3.45;;;4.30;99.90;;;;;;4904710;29;20064;-94
2024/03/29 06:17:58;;;;;;;9.77;4.10;;;4.30;99.90;;;;;;4936021;29;20031;-92
2024/03/29 06:20:24;;;;;;;7.88;3.67;;;4.30;99.90;;;;;;4923303;29;20040;-94
2024/03/29 06:22:50;;;;;;;18.40;3.88;;;4.30;99.90;;;;;;4923201;29;20040;-91
2024/03/29 06:25:16;;;;;;;5.50;2.95;;;4.40;99.90;;;;;;4929581;29;20387;-93
2024/03/29 06:27:47;;;;;;;12.18;3.63;;;4.40;99.90;;;;;;4902019;29;20056;-91
2024/03/29 06:30:15;;;;;;;6.32;3.67;;;4.40;99.90;;;;;;4904309;29;20031;-93
2024/03/29 06:32:41;;;;;;;11.23;3.67;;;4.40;99.90;;;;;;4887337;29;20083;-92
2024/03/29 06:35:07;;;;;;;10.05;3.60;;;4.40;99.90;;;;;;4907383;29;20036;-91
2024/03/29 06:37:33;;;;;;;9.00;4.22;;;4.40;99.90;;;;;;4909296;29;20035;-92
2024/03/29 06:39:58;;;;;;;9.65;3.92;;;4.50;99.90;;;;;;4908040;29;20024;-91
2024/03/29 06:42:24;;;;;;;10.40;3.72;;;4.50;99.90;;;;;;4905996;29;20048;-91
2024/03/29 06:44:50;;;;;;;10.50;4.43;;;4.50;99.90;;;;;;4906903;29;20084;-91
2024/03/29 06:47:16;;;;;;;10.65;4.57;;;4.50;99.90;;;;;;4904965;29;20463;-93
2024/03/29 06:49:42;;;;;;;19.90;5.47;;;4.50;99.90;;;;;;4919614;29;20032;-93
2024/03/29 06:52:10;;;;;;;16.33;5.95;;;4.50;99.90;;;;;;4901469;29;20106;-94
2024/03/29 06:54:35;;;;;;;13.43;6.50;;;4.50;99.90;;;;;;4902515;29;20043;-93
2024/03/29 06:57:02;;;;;;;18.88;6.18;;;4.50;99.90;;;;;;4903393;29;20024;-93
2024/03/29 06:59:29;;;;;;;15.73;5.38;;;4.50;99.90;;;;;;4902331;29;20363;-94
2024/03/29 07:01:54;;;;;;;17.00;5.35;;;4.50;99.90;;;;;;4901865;29;20052;-92
2024/03/29 07:04:24;;;;;;;15.48;5.85;;;4.60;99.90;;;;;;4899836;29;20036;-93
2024/03/29 07:06:51;;;;;;;12.02;5.13;;;4.60;99.90;;;;;;4892164;29;20035;-93
2024/03/29 07:09:22;;;;;;;14.45;5.28;;;4.60;99.90;;;;;;4898142;29;20025;-94
2024/03/29 07:11:49;;;;;;;14.85;6.53;;;4.60;99.90;;;;;;4902061;29;20020;-95
2024/03/29 07:14:15;;;;;;;18.55;4.97;;;4.70;99.90;;;;;;4902246;29;20030;-93
2024/03/29 07:16:42;;;;;;;11.35;5.35;;;4.70;99.90;;;;;;4902071;29;20036;-94
2024/03/29 07:19:08;;;;;;;14.85;5.78;;;4.80;99.90;;;;;;4902200;29;20036;-94
2024/03/29 07:21:34;;;;;;;17.17;5.70;;;4.80;99.90;;;;;;4908923;29;20039;-94
2024/03/29 07:23:59;;;;;;;16.58;6.53;;;4.90;99.90;;;;;;4910079;29;20168;-91
2024/03/29 07:26:25;;;;;;;16.38;5.47;;;4.90;99.90;;;;;;4916687;29;20032;-93
2024/03/29 07:28:51;;;;;;;17.45;5.10;;;5.00;99.90;;;;;;4915964;29;20031;-91
2024/03/29 07:31:17;;;;;;;13.13;6.18;;;5.00;99.90;;;;;;4932655;29;20048;-93
2024/03/29 07:33:43;;;;;;;16.98;5.50;;;5.10;99.90;;;;;;4906599;29;20549;-94
2024/03/29 07:36:10;;;;;;;11.48;5.20;;;5.10;99.90;;;;;;4903207;29;20418;-94
2024/03/29 07:38:38;;;;;;;12.95;5.20;;;5.20;99.90;;;;;;4904323;29;20069;-94
2024/03/29 07:41:08;;;;;;;11.48;5.07;;;5.20;99.90;;;;;;4902515;29;20107;-94
2024/03/29 07:43:39;;;;;;;14.80;5.32;;;5.30;99.90;;;;;;4898641;29;20032;-93
2024/03/29 07:46:14;;;;;;;11.55;4.90;;;5.30;99.90;;;;;;4907288;29;20032;-94
2024/03/29 07:48:40;;;;;;;14.63;4.72;;;5.40;99.90;;;;;;4901965;29;20031;-95
2024/03/29 07:51:05;;;;;;;14.27;4.25;;;5.40;99.90;;;;;;4903067;29;20048;-92
2024/03/29 07:53:31;;;;;;;11.98;4.72;;;5.50;99.90;;;;;;4904668;29;20157;-93
2024/03/29 07:55:57;;;;;;;10.75;4.97;;;5.50;99.90;;;;;;4904862;29;20112;-93
2024/03/29 07:58:24;;;;;;;11.00;4.95;;;5.50;99.90;;;;;;4904181;29;20043;-93
2024/03/29 08:00:51;;;;;;;17.63;4.97;;;5.60;99.90;;;;;;4903591;29;20064;-93
2024/03/29 08:03:16;;;;;;;13.45;4.68;;;5.60;99.90;;;;;;4903824;29;20063;-95
2024/03/29 08:05:42;;;;;;;10.63;4.90;;;5.60;99.90;;;;;;4903873;29;20036;-94
2024/03/29 08:08:08;;;;;;;11.48;4.57;;;5.60;99.90;;;;;;4905564;29;20028;-95
2024/03/29 08:10:37;;;;;;;11.50;4.32;;;5.70;99.90;;;;;;4904659;29;20060;-93
2024/03/29 08:13:03;;;;;;;10.15;3.85;;;5.80;99.90;;;;;;4923719;29;20020;-94
2024/03/29 08:15:29;;;;;;;9.55;4.13;;;5.80;99.90;;;;;;4904207;29;20024;-93
2024/03/29 08:17:55;;;;;;;14.50;3.75;;;5.90;99.90;;;;;;4906781;29;20024;-96
2024/03/29 08:20:21;;;;;;;12.13;3.88;;;5.90;99.90;;;;;;4902901;29;20130;-93
2024/03/29 08:22:46;;;;;;;11.40;3.58;;;6.00;99.90;;;;;;4902258;29;20107;-93
2024/03/29 08:25:12;;;;;;;4.78;3.15;;;6.00;99.90;;;;;;4901922;29;20044;-93
2024/03/29 08:27:39;;;;;;;3.25;2.28;;;6.00;99.90;;;;;;4919264;29;20024;-94
2024/03/29 08:30:05;;;;;;;11.43;2.92;;;6.10;99.90;;;;;;4903112;29;20035;-94
2024/03/29 08:32:31;;;;;;;7.60;2.65;;;6.10;99.90;;;;;;4902913;29;20020;-95
2024/03/29 08:34:59;;;;;;;9.80;2.83;;;6.20;99.90;;;;;;4902743;29;20029;-94
2024/03/29 08:37:28;;;;;;;10.20;2.72;;;6.20;99.90;;;;;;4903525;29;20059;-94
2024/03/29 08:39:56;;;;;;;10.88;2.95;;;6.30;99.90;;;;;;4905351;29;20595;-93
2024/03/29 08:42:23;;;;;;;11.18;2.90;;;6.30;99.90;;;;;;4899817;29;20032;-93
2024/03/29 08:44:48;;;;;;;9.88;2.38;;;6.30;99.90;;;;;;4902251;29;20028;-95
2024/03/29 08:47:14;;;;;;;7.25;2.30;;;6.40;99.90;;;;;;4902566;29;20028;-94
2024/03/29 08:49:40;;;;;;;11.98;4.15;;;6.40;99.90;;;;;;4919465;29;20020;-95
2024/03/29 08:52:15;;;;;;;9.25;2.85;;;6.50;99.90;;;;;;4902636;29;20111;-94
2024/03/29 08:54:42;;;;;;;8.35;2.25;;;6.60;99.90;;;;;;4902643;29;20024;-95
2024/03/29 08:57:08;;;;;;;6.78;2.50;;;6.60;99.90;;;;;;4902686;29;20020;-94
2024/03/29 08:59:33;;;;;;;12.50;2.30;;;6.70;99.90;;;;;;4900591;29;20028;-94
2024/03/29 09:02:06;;;;;;;5.68;2.03;;;6.80;99.90;;;;;;4901305;29;20048;-95
2024/03/29 09:04:33;;;;;;;8.23;1.50;;;6.80;99.90;;;;;;4901548;29;20059;-94
2024/03/29 09:07:02;;;;;;;4.90;1.67;;;6.90;99.90;;;;;;4901778;29;20628;-94
2024/03/29 09:09:27;;;;;;;3.70;1.40;;;6.90;99.90;;;;;;4901413;29;20032;-93
2024/03/29 09:11:54;;;;;;;6.32;1.85;;;7.00;99.90;;;;;;4901395;29;20027;-93
2024/03/29 09:14:20;;;;;;;2.63;1.50;;;7.10;99.90;;;;;;4900753;29;20024;-92
2024/03/29 09:16:47;;;;;;;3.58;1.63;;;7.10;99.90;;;;;;4901160;29;20390;-94
2024/03/29 09:19:13;;;;;;;6.63;1.42;;;7.10;99.90;;;;;;4898754;29;20043;-92
2024/03/29 09:21:40;;;;;;;5.55;1.50;;;7.20;99.90;;;;;;4901496;29;20453;-93
2024/03/29 09:24:06;;;;;;;5.15;1.70;;;7.30;99.90;;;;;;4901125;29;20052;-92
2024/03/29 09:26:33;;;;;;;3.53;2.35;;;7.30;99.90;;;;;;4900970;29;20035;-94
2024/03/29 09:28:59;;;;;;;3.00;1.00;;;7.30;99.90;;;;;;4899892;29;20126;-94
2024/03/29 09:31:25;;;;;;;5.35;1.00;;;7.40;99.90;;;;;;4901153;29;20112;-93
2024/03/29 09:39:03;;;;;;;6.03;1.30;;;7.50;99.90;;;;;;5928781;23;20083;-92
2024/03/29 09:41:31;;;;;;;4.50;1.15;;;7.50;99.90;;;;;;4939710;29;20036;-93
2024/03/29 09:44:02;;;;;;;3.83;1.00;;;7.50;99.90;;;;;;4917575;29;20617;-92
2024/03/29 09:46:29;;;;;;;7.25;1.20;;;7.50;99.90;;;;;;4913824;29;20610;-92
2024/03/29 09:48:55;;;;;;;3.63;1.08;;;7.60;99.90;;;;;;4919141;29;20024;-92
2024/03/29 09:51:22;;;;;;;3.65;1.20;;;7.60;99.90;;;;;;4912336;29;20027;-94
2024/03/29 09:53:48;;;;;;;4.80;0.90;;;7.60;99.90;;;;;;4904353;29;20042;-91
2024/03/29 09:56:15;;;;;;;2.88;0.90;;;7.70;99.90;;;;;;4908546;29;20048;-92
2024/03/29 09:58:41;;;;;;;5.80;1.45;;;7.80;99.90;;;;;;4895625;29;20430;-90
2024/03/29 10:01:07;;;;;;;8.50;1.48;;;8.00;99.90;;;;;;4898658;29;20020;-93
2024/03/29 10:03:40;;;;;;;3.33;1.42;;;8.10;99.90;;;;;;4910647;29;20028;-92
2024/03/29 10:06:09;;;;;;;6.55;1.35;;;8.20;99.90;;;;;;4911150;29;20110;-93
2024/03/29 10:08:35;;;;;;;4.32;1.05;;;8.20;99.90;;;;;;4908237;29;20538;-92
2024/03/29 10:11:01;;;;;;;6.55;1.23;;;8.30;99.90;;;;;;4908333;29;20032;-92
2024/03/29 10:13:28;;;;;;;6.18;1.00;;;8.40;99.90;;;;;;4892307;29;20446;-92
2024/03/29 10:15:57;;;;;;;3.88;1.52;;;8.40;99.90;;;;;;4893203;29;20096;-92
2024/03/29 10:18:25;;;;;;;3.17;0.70;;;8.50;99.90;;;;;;4891626;29;20100;-92
2024/03/29 10:21:07;;;;;;;5.53;0.98;;;8.60;99.90;;;;;;4907188;29;20020;-92
2024/03/29 10:23:35;;;;;;;2.10;0.75;;;8.70;99.90;;;;;;4910447;29;20038;-94
2024/03/29 10:26:01;;;;;;;2.80;0.90;;;8.90;99.90;;;;;;4890931;29;20032;-93
2024/03/29 10:28:36;;;;;;;4.50;0.95;;;9.10;99.90;;;;;;4907832;29;20482;-92
2024/03/29 10:31:04;;;;;;;6.55;0.80;;;9.30;99.90;;;;;;4891624;29;20483;-93
2024/03/29 10:33:33;;;;;;;4.05;0.82;;;9.50;99.90;;;;;;4907468;29;20028;-92
2024/03/29 10:36:00;;;;;;;3.23;1.13;;;9.50;99.90;;;;;;4911180;29;20036;-91
2024/03/29 10:38:27;;;;;;;4.57;0.90;;;9.60;99.90;;;;;;4908238;29;20028;-92
2024/03/29 10:40:53;;;;;;;4.40;0.82;;;9.80;99.90;;;;;;4898179;29;20051;-93
2024/03/29 10:43:20;;;;;;;1.05;0.60;;;9.80;99.90;;;;;;4901896;29;20035;-93
2024/03/29 10:45:47;;;;;;;2.55;0.60;;;9.70;99.90;;;;;;4930555;29;20497;-93
2024/03/29 10:48:15;;;;;;;3.50;0.98;;;9.60;99.90;;;;;;4911120;29;20029;-93
2024/03/29 10:50:42;;;;;;;3.05;0.70;;;9.70;99.90;;;;;;4886181;29;20036;-92
2024/03/29 10:53:10;;;;;;;3.83;0.65;;;9.80;99.90;;;;;;4892770;29;20024;-93
2024/03/29 10:55:37;;;;;;;1.65;0.50;;;9.90;99.90;;;;;;4911061;29;20025;-92
2024/03/29 10:58:06;;;;;;;2.85;0.70;;;9.90;99.90;;;;;;4898302;29;20334;-91
2024/03/29 11:00:42;;;;;;;3.63;0.77;;;9.90;99.90;;;;;;4909781;29;20028;-91
2024/03/29 11:03:30;;;;;;;5.15;0.80;;;9.90;99.90;;;;;;4908632;29;20025;-92
2024/03/29 11:06:02;;;;;;;4.03;0.60;;;9.90;99.90;;;;;;4924033;29;20051;-92
2024/03/29 11:08:42;;;;;;;1.35;0.50;;;10.00;99.90;;;;;;4902011;29;20029;-94
2024/03/29 11:11:09;;;;;;;4.55;0.80;;;10.10;99.90;;;;;;4901836;29;20063;-93
2024/03/29 11:13:52;;;;;;;1.60;0.40;;;10.20;99.90;;;;;;4910382;29;20021;-92
2024/03/29 11:16:21;;;;;;;3.90;1.00;;;10.40;99.90;;;;;;4909744;29;20088;-90
2024/03/29 11:18:48;;;;;;;2.03;0.77;;;10.50;99.90;;;;;;4923185;29;20044;-92
2024/03/29 11:21:18;;;;;;;11.45;1.23;;;10.60;99.90;;;;;;4905402;29;20029;-93
2024/03/29 11:23:49;;;;;;;6.87;2.17;;;10.70;99.90;;;;;;4906841;29;20041;-92
2024/03/29 11:26:15;;;;;;;4.80;0.90;;;10.70;99.90;;;;;;4909900;29;20142;-91
2024/03/29 11:28:47;;;;;;;6.72;1.00;;;10.70;99.90;;;;;;4911545;29;20008;-92
2024/03/29 11:31:14;;;;;;;3.55;1.00;;;10.80;99.90;;;;;;4919339;29;20024;-92
2024/03/29 11:33:48;;;;;;;6.22;1.90;;;10.90;99.90;;;;;;4924757;29;20046;-91
2024/03/29 11:36:24;;;;;;;3.30;0.68;;;10.90;99.90;;;;;;4930183;29;20028;-90
2024/03/29 11:38:54;;;;;;;3.45;0.82;;;10.90;99.90;;;;;;4932577;29;20028;-90
2024/03/29 11:41:23;;;;;;;5.15;1.50;;;10.90;99.90;;;;;;4913453;29;20043;-90
2024/03/29 11:43:56;;;;;;;5.70;1.10;;;10.90;99.90;;;;;;4908976;29;20048;-90
2024/03/29 11:46:23;;;;;;;6.43;1.15;;;11.10;99.90;;;;;;4924603;29;20069;-92
2024/03/29 11:48:52;;;;;;;5.15;1.10;;;11.60;99.90;;;;;;4922475;29;20024;-92
2024/03/29 11:51:22;;;;;;;5.72;1.02;;;12.10;99.90;;;;;;4926382;29;20036;-90
2024/03/29 11:53:51;;;;;;;2.05;0.80;;;12.20;99.90;;;;;;4907331;29;20076;-93
2024/03/29 11:56:17;;;;;;;1.80;0.90;;;12.40;99.90;;;;;;4915779;29;20027;-91
2024/03/29 11:58:42;;;;;;;5.10;1.10;;;12.70;99.90;;;;;;4923301;29;20032;-92
2024/03/29 12:01:14;;;;;;;2.72;0.90;;;13.00;99.90;;;;;;4924907;29;20016;-89
2024/03/29 12:03:41;;;;;;;3.13;0.95;;;13.30;99.90;;;;;;4915034;29;20028;-88
2024/03/29 12:06:08;;;;;;;3.50;0.70;;;13.40;99.90;;;;;;4926815;29;20044;-92
2024/03/29 12:08:43;;;;;;;3.63;1.10;;;13.30;99.90;;;;;;4920964;29;20024;-94
2024/03/29 12:11:09;;;;;;;5.32;1.05;;;13.10;99.90;;;;;;4916319;29;20123;-93
2024/03/29 12:13:35;;;;;;;3.25;1.02;;;12.90;99.90;;;;;;4901529;29;20421;-95
2024/03/29 12:16:01;;;;;;;3.22;0.80;;;12.70;99.90;;;;;;4901826;29;20056;-94
2024/03/29 12:18:35;;;;;;;3.90;1.05;;;12.40;99.90;;;;;;4895447;29;20024;-93
2024/03/29 12:21:01;;;;;;;2.10;0.70;;;12.10;99.90;;;;;;4897486;29;20478;-93
2024/03/29 12:23:27;;;;;;;0.35;0.25;;;11.70;99.90;;;;;;4908078;29;20504;-94
2024/03/29 12:25:58;;;;;;;5.30;0.60;;;11.20;99.90;;;;;;4903565;29;20067;-94
2024/03/29 12:28:24;;;;;;;7.68;0.68;;;10.80;99.90;;;;;;4922933;29;20033;-93
2024/03/29 12:30:51;;;;;;;4.15;0.50;;;10.80;99.90;;;;;;4896235;29;20029;-92
2024/03/29 12:33:21;;;;;;;3.40;0.80;;;10.90;99.90;;;;;;4919696;29;20039;-94
2024/03/29 12:35:53;;;;;;;1.98;0.40;;;10.90;99.90;;;;;;4918865;29;20062;-96
2024/03/29 12:38:20;;;;;;;0.75;0.50;;;10.90;99.90;;;;;;4916622;29;20028;-93
2024/03/29 12:40:48;;;;;;;2.83;1.27;;;11.10;99.90;;;;;;4902123;29;20127;-94
2024/03/29 12:43:17;;;;;;;0.55;0.38;;;11.40;99.90;;;;;;4914688;29;20036;-93
2024/03/29 12:45:43;;;;;;;1.88;0.32;;;11.90;99.90;;;;;;4893219;29;20036;-92
2024/03/29 12:48:27;;;;;;;1.70;0.50;;;12.30;99.90;;;;;;4905051;29;20032;-93
2024/03/29 12:50:53;;;;;;;2.38;0.55;;;12.40;99.90;;;;;;4901857;29;20171;-92
2024/03/29 12:53:19;;;;;;;1.02;0.40;;;12.60;99.90;;;;;;4900131;29;20036;-95
2024/03/29 12:55:49;;;;;;;1.20;0.40;;;12.90;99.90;;;;;;4897172;29;20028;-93
2024/03/29 12:58:21;;;;;;;1.98;0.38;;;13.30;99.90;;;;;;4913563;29;20107;-91
2024/03/29 13:00:47;;;;;;;1.80;0.40;;;13.80;99.90;;;;;;4896626;29;20042;-94
2024/03/29 13:03:13;;;;;;;1.23;0.60;;;14.10;99.90;;;;;;4896114;29;20117;-92